sensor_id;sensor_type;location;lat;lon;timestamp;temperature;humidity
37050;DHT22;22958;51.232;6.826;2022-07-29T00:02:21;19.80;99.90
37050;DHT22;22958;51.232;6.826;2022-07-29T00:04:47;19.80;99.90
37050;DHT22;22958;51.232;6.826;2022-07-29T00:07:12;19.80;99.90
37050;DHT22;22958;51.232;6.826;2022-07-29T00:09:37;19.80;99.90
37050;DHT22;22958;51.232;6.826;2022-07-29T00:12:03;19.70;99.90
37050;DHT22;22958;51.232;6.826;2022-07-29T00:14:29;19.70;99.90
37050;DHT22;22958;51.232;6.826;2022-07-29T00:16:54;19.70;99.90
37050;DHT22;22958;51.232;6.826;2022-07-29T00:19:19;19.70;99.90
37050;DHT22;22958;51.232;6.826;2022-07-29T00:21:45;19.70;99.90
37050;DHT22;22958;51.232;6.826;2022-07-29T00:24:10;19.70;99.90
37050;DHT22;22958;51.232;6.826;2022-07-29T00:26:36;19.70;99.90
37050;DHT22;22958;51.232;6.826;2022-07-29T00:29:02;19.70;99.90
37050;DHT22;22958;51.232;6.826;2022-07-29T00:31:28;19.70;99.90
37050;DHT22;22958;51.232;6.826;2022-07-29T00:33:54;19.70;99.90
37050;DHT22;22958;51.232;6.826;2022-07-29T00:36:19;19.70;99.90
37050;DHT22;22958;51.232;6.826;2022-07-29T00:38:49;19.60;99.90
37050;DHT22;22958;51.232;6.826;2022-07-29T00:41:15;19.60;99.90
37050;DHT22;22958;51.232;6.826;2022-07-29T00:43:41;19.60;99.90
37050;DHT22;22958;51.232;6.826;2022-07-29T00:46:06;19.60;99.90
37050;DHT22;22958;51.232;6.826;2022-07-29T00:48:32;19.60;99.90
37050;DHT22;22958;51.232;6.826;2022-07-29T00:50:57;19.60;99.90
37050;DHT22;22958;51.232;6.826;2022-07-29T00:53:23;19.60;99.90
37050;DHT22;22958;51.232;6.826;2022-07-29T00:55:49;19.60;99.90
37050;DHT22;22958;51.232;6.826;2022-07-29T00:58:15;19.60;99.90
37050;DHT22;22958;51.232;6.826;2022-07-29T01:00:40;19.50;99.90
37050;DHT22;22958;51.232;6.826;2022-07-29T01:03:06;19.60;99.90
37050;DHT22;22958;51.232;6.826;2022-07-29T01:05:32;19.60;99.90
37050;DHT22;22958;51.232;6.826;2022-07-29T01:07:57;19.70;99.90
37050;DHT22;22958;51.232;6.826;2022-07-29T01:10:24;19.60;99.90
37050;DHT22;22958;51.232;6.826;2022-07-29T01:12:50;19.60;99.90
37050;DHT22;22958;51.232;6.826;2022-07-29T01:15:16;19.70;99.90
37050;DHT22;22958;51.232;6.826;2022-07-29T01:17:50;19.60;99.90
37050;DHT22;22958;51.232;6.826;2022-07-29T01:20:18;19.60;99.90
37050;DHT22;22958;51.232;6.826;2022-07-29T01:25:40;19.60;99.90
37050;DHT22;22958;51.232;6.826;2022-07-29T01:30:53;19.50;99.90
37050;DHT22;22958;51.232;6.826;2022-07-29T01:33:19;19.50;99.90
37050;DHT22;22958;51.232;6.826;2022-07-29T01:36:07;19.50;99.90
37050;DHT22;22958;51.232;6.826;2022-07-29T01:38:34;19.40;99.90
37050;DHT22;22958;51.232;6.826;2022-07-29T01:41:02;19.40;99.90
37050;DHT22;22958;51.232;6.826;2022-07-29T01:43:38;19.40;99.90
37050;DHT22;22958;51.232;6.826;2022-07-29T01:46:05;19.50;99.90
37050;DHT22;22958;51.232;6.826;2022-07-29T01:48:43;19.40;99.90
37050;DHT22;22958;51.232;6.826;2022-07-29T01:51:18;19.40;99.90
37050;DHT22;22958;51.232;6.826;2022-07-29T01:53:50;19.40;99.90
37050;DHT22;22958;51.232;6.826;2022-07-29T01:56:18;19.30;99.90
37050;DHT22;22958;51.232;6.826;2022-07-29T01:58:45;19.30;99.90
37050;DHT22;22958;51.232;6.826;2022-07-29T02:01:10;19.30;99.90
37050;DHT22;22958;51.232;6.826;2022-07-29T02:03:37;19.30;99.90
37050;DHT22;22958;51.232;6.826;2022-07-29T02:06:04;19.20;99.90
37050;DHT22;22958;51.232;6.826;2022-07-29T02:08:30;19.30;99.90
37050;DHT22;22958;51.232;6.826;2022-07-29T02:10:57;19.30;99.90
37050;DHT22;22958;51.232;6.826;2022-07-29T02:13:23;19.30;99.90
37050;DHT22;22958;51.232;6.826;2022-07-29T02:15:50;19.20;99.90
37050;DHT22;22958;51.232;6.826;2022-07-29T02:18:17;19.20;99.90
37050;DHT22;22958;51.232;6.826;2022-07-29T02:20:44;19.20;99.90
37050;DHT22;22958;51.232;6.826;2022-07-29T02:23:11;19.20;99.90
37050;DHT22;22958;51.232;6.826;2022-07-29T02:25:37;19.20;99.90
37050;DHT22;22958;51.232;6.826;2022-07-29T02:28:04;19.20;99.90
37050;DHT22;22958;51.232;6.826;2022-07-29T02:30:30;19.20;99.90
37050;DHT22;22958;51.232;6.826;2022-07-29T02:32:56;19.20;99.90
37050;DHT22;22958;51.232;6.826;2022-07-29T02:35:22;19.20;99.90
37050;DHT22;22958;51.232;6.826;2022-07-29T02:37:48;19.20;99.90
37050;DHT22;22958;51.232;6.826;2022-07-29T02:40:34;19.10;99.90
37050;DHT22;22958;51.232;6.826;2022-07-29T02:43:02;19.10;99.90
37050;DHT22;22958;51.232;6.826;2022-07-29T02:45:29;19.10;99.90
37050;DHT22;22958;51.232;6.826;2022-07-29T02:47:54;19.00;99.90
37050;DHT22;22958;51.232;6.826;2022-07-29T02:50:22;19.00;99.90
37050;DHT22;22958;51.232;6.826;2022-07-29T02:55:55;18.90;99.90
37050;DHT22;22958;51.232;6.826;2022-07-29T02:58:15;18.90;99.90
37050;DHT22;22958;51.232;6.826;2022-07-29T03:00:43;18.80;99.90
37050;DHT22;22958;51.232;6.826;2022-07-29T03:03:12;18.90;99.90
37050;DHT22;22958;51.232;6.826;2022-07-29T03:05:38;18.90;99.90
37050;DHT22;22958;51.232;6.826;2022-07-29T03:08:04;18.90;99.90
37050;DHT22;22958;51.232;6.826;2022-07-29T03:10:31;18.90;99.90
37050;DHT22;22958;51.232;6.826;2022-07-29T03:12:56;18.90;99.90
37050;DHT22;22958;51.232;6.826;2022-07-29T03:15:22;18.90;99.90
37050;DHT22;22958;51.232;6.826;2022-07-29T03:17:48;18.90;99.90
37050;DHT22;22958;51.232;6.826;2022-07-29T03:20:14;18.80;99.90
37050;DHT22;22958;51.232;6.826;2022-07-29T03:22:40;18.80;99.90
37050;DHT22;22958;51.232;6.826;2022-07-29T03:25:09;18.80;99.90
37050;DHT22;22958;51.232;6.826;2022-07-29T03:27:35;18.80;99.90
37050;DHT22;22958;51.232;6.826;2022-07-29T03:30:00;18.70;99.90
37050;DHT22;22958;51.232;6.826;2022-07-29T03:32:26;18.70;99.90
37050;DHT22;22958;51.232;6.826;2022-07-29T03:34:51;18.60;99.90
37050;DHT22;22958;51.232;6.826;2022-07-29T03:37:17;18.30;99.90
37050;DHT22;22958;51.232;6.826;2022-07-29T03:39:42;17.70;99.90
37050;DHT22;22958;51.232;6.826;2022-07-29T03:42:08;17.40;99.90
37050;DHT22;22958;51.232;6.826;2022-07-29T03:44:35;17.20;99.90
37050;DHT22;22958;51.232;6.826;2022-07-29T03:47:01;17.00;99.90
37050;DHT22;22958;51.232;6.826;2022-07-29T03:49:28;16.80;99.90
37050;DHT22;22958;51.232;6.826;2022-07-29T03:51:54;16.60;99.90
37050;DHT22;22958;51.232;6.826;2022-07-29T03:54:20;16.60;99.90
37050;DHT22;22958;51.232;6.826;2022-07-29T03:56:46;16.50;99.90
37050;DHT22;22958;51.232;6.826;2022-07-29T03:59:14;16.40;99.90
37050;DHT22;22958;51.232;6.826;2022-07-29T04:01:40;16.40;99.90
37050;DHT22;22958;51.232;6.826;2022-07-29T04:04:06;16.40;99.90
37050;DHT22;22958;51.232;6.826;2022-07-29T04:06:38;16.30;99.90
37050;DHT22;22958;51.232;6.826;2022-07-29T04:09:03;16.30;99.90
37050;DHT22;22958;51.232;6.826;2022-07-29T04:11:29;16.30;99.90
37050;DHT22;22958;51.232;6.826;2022-07-29T04:13:54;16.20;99.90
37050;DHT22;22958;51.232;6.826;2022-07-29T04:16:20;16.30;99.90
37050;DHT22;22958;51.232;6.826;2022-07-29T04:18:45;16.30;99.90
37050;DHT22;22958;51.232;6.826;2022-07-29T04:21:11;16.30;99.90
37050;DHT22;22958;51.232;6.826;2022-07-29T04:23:36;16.20;99.90
37050;DHT22;22958;51.232;6.826;2022-07-29T04:26:01;16.10;99.90
37050;DHT22;22958;51.232;6.826;2022-07-29T04:28:27;16.10;99.90
37050;DHT22;22958;51.232;6.826;2022-07-29T04:30:53;16.00;99.90
37050;DHT22;22958;51.232;6.826;2022-07-29T04:33:18;15.80;99.90
37050;DHT22;22958;51.232;6.826;2022-07-29T04:35:44;15.70;99.90
37050;DHT22;22958;51.232;6.826;2022-07-29T04:38:09;15.70;99.90
37050;DHT22;22958;51.232;6.826;2022-07-29T04:40:35;15.70;99.90
37050;DHT22;22958;51.232;6.826;2022-07-29T04:43:00;15.80;99.90
37050;DHT22;22958;51.232;6.826;2022-07-29T04:45:26;15.80;99.90
37050;DHT22;22958;51.232;6.826;2022-07-29T04:47:52;15.70;99.90
37050;DHT22;22958;51.232;6.826;2022-07-29T04:50:17;15.80;99.90
37050;DHT22;22958;51.232;6.826;2022-07-29T04:52:43;15.90;99.90
37050;DHT22;22958;51.232;6.826;2022-07-29T04:55:08;15.90;99.90
37050;DHT22;22958;51.232;6.826;2022-07-29T04:57:34;15.70;99.90
37050;DHT22;22958;51.232;6.826;2022-07-29T04:59:59;15.40;99.90
37050;DHT22;22958;51.232;6.826;2022-07-29T05:02:25;15.20;99.90
37050;DHT22;22958;51.232;6.826;2022-07-29T05:04:50;15.20;99.90
37050;DHT22;22958;51.232;6.826;2022-07-29T05:07:15;15.30;99.90
37050;DHT22;22958;51.232;6.826;2022-07-29T05:09:41;15.30;99.90
37050;DHT22;22958;51.232;6.826;2022-07-29T05:12:06;15.30;99.90
37050;DHT22;22958;51.232;6.826;2022-07-29T05:14:32;15.30;99.90
37050;DHT22;22958;51.232;6.826;2022-07-29T05:16:58;15.30;99.90
37050;DHT22;22958;51.232;6.826;2022-07-29T05:19:23;15.40;99.90
37050;DHT22;22958;51.232;6.826;2022-07-29T05:21:48;15.40;99.90
37050;DHT22;22958;51.232;6.826;2022-07-29T05:24:14;15.60;99.90
37050;DHT22;22958;51.232;6.826;2022-07-29T05:26:39;15.70;99.90
37050;DHT22;22958;51.232;6.826;2022-07-29T05:29:05;15.70;99.90
37050;DHT22;22958;51.232;6.826;2022-07-29T05:31:30;15.90;99.90
37050;DHT22;22958;51.232;6.826;2022-07-29T05:33:56;15.90;99.90
37050;DHT22;22958;51.232;6.826;2022-07-29T05:36:21;16.00;99.90
37050;DHT22;22958;51.232;6.826;2022-07-29T05:38:47;16.10;99.90
37050;DHT22;22958;51.232;6.826;2022-07-29T05:41:12;16.20;99.90
37050;DHT22;22958;51.232;6.826;2022-07-29T05:43:38;16.20;99.90
37050;DHT22;22958;51.232;6.826;2022-07-29T05:46:03;16.20;99.90
37050;DHT22;22958;51.232;6.826;2022-07-29T05:48:28;16.30;99.90
37050;DHT22;22958;51.232;6.826;2022-07-29T05:50:54;16.40;99.90
37050;DHT22;22958;51.232;6.826;2022-07-29T05:53:19;16.50;99.90
37050;DHT22;22958;51.232;6.826;2022-07-29T05:55:45;16.60;99.90
37050;DHT22;22958;51.232;6.826;2022-07-29T05:58:11;16.60;99.90
37050;DHT22;22958;51.232;6.826;2022-07-29T06:00:36;16.70;99.90
37050;DHT22;22958;51.232;6.826;2022-07-29T06:03:02;16.80;99.90
37050;DHT22;22958;51.232;6.826;2022-07-29T06:05:27;16.80;99.90
37050;DHT22;22958;51.232;6.826;2022-07-29T06:07:52;16.90;99.90
37050;DHT22;22958;51.232;6.826;2022-07-29T06:10:18;16.90;99.90
37050;DHT22;22958;51.232;6.826;2022-07-29T06:12:44;17.00;99.90
37050;DHT22;22958;51.232;6.826;2022-07-29T06:15:09;17.00;99.90
37050;DHT22;22958;51.232;6.826;2022-07-29T06:17:35;17.10;99.90
37050;DHT22;22958;51.232;6.826;2022-07-29T06:20:01;17.20;99.90
37050;DHT22;22958;51.232;6.826;2022-07-29T06:22:26;17.30;99.90
37050;DHT22;22958;51.232;6.826;2022-07-29T06:24:52;17.30;99.90
37050;DHT22;22958;51.232;6.826;2022-07-29T06:27:17;17.30;99.90
37050;DHT22;22958;51.232;6.826;2022-07-29T06:29:42;17.30;99.90
37050;DHT22;22958;51.232;6.826;2022-07-29T06:32:08;17.30;99.90
37050;DHT22;22958;51.232;6.826;2022-07-29T06:34:34;17.40;99.90
37050;DHT22;22958;51.232;6.826;2022-07-29T06:37:00;17.40;99.90
37050;DHT22;22958;51.232;6.826;2022-07-29T06:39:27;17.50;99.90
37050;DHT22;22958;51.232;6.826;2022-07-29T06:41:53;17.50;99.90
37050;DHT22;22958;51.232;6.826;2022-07-29T06:44:19;17.60;99.90
37050;DHT22;22958;51.232;6.826;2022-07-29T06:46:44;17.60;99.90
37050;DHT22;22958;51.232;6.826;2022-07-29T06:49:12;17.70;99.90
37050;DHT22;22958;51.232;6.826;2022-07-29T06:51:39;17.80;99.90
37050;DHT22;22958;51.232;6.826;2022-07-29T06:54:04;17.80;99.90
37050;DHT22;22958;51.232;6.826;2022-07-29T06:56:31;17.80;99.90
37050;DHT22;22958;51.232;6.826;2022-07-29T06:58:56;17.80;99.90
37050;DHT22;22958;51.232;6.826;2022-07-29T07:01:22;17.70;99.90
37050;DHT22;22958;51.232;6.826;2022-07-29T07:03:47;17.70;99.90
37050;DHT22;22958;51.232;6.826;2022-07-29T07:06:13;17.80;99.90
37050;DHT22;22958;51.232;6.826;2022-07-29T07:08:38;17.70;99.90
37050;DHT22;22958;51.232;6.826;2022-07-29T07:11:04;17.80;99.90
37050;DHT22;22958;51.232;6.826;2022-07-29T07:13:31;17.80;99.90
37050;DHT22;22958;51.232;6.826;2022-07-29T07:16:00;17.90;99.90
37050;DHT22;22958;51.232;6.826;2022-07-29T07:18:25;18.00;99.90
37050;DHT22;22958;51.232;6.826;2022-07-29T07:20:51;18.00;99.90
37050;DHT22;22958;51.232;6.826;2022-07-29T07:23:16;18.00;99.90
37050;DHT22;22958;51.232;6.826;2022-07-29T07:25:41;18.00;99.90
37050;DHT22;22958;51.232;6.826;2022-07-29T07:28:07;18.00;99.90
37050;DHT22;22958;51.232;6.826;2022-07-29T07:30:32;18.00;99.90
37050;DHT22;22958;51.232;6.826;2022-07-29T07:32:58;17.90;99.90
37050;DHT22;22958;51.232;6.826;2022-07-29T07:35:24;17.90;99.90
37050;DHT22;22958;51.232;6.826;2022-07-29T07:37:50;17.90;99.90
37050;DHT22;22958;51.232;6.826;2022-07-29T07:40:15;18.10;99.90
37050;DHT22;22958;51.232;6.826;2022-07-29T07:42:41;18.20;99.90
37050;DHT22;22958;51.232;6.826;2022-07-29T07:45:07;18.20;99.90
37050;DHT22;22958;51.232;6.826;2022-07-29T07:47:34;18.00;99.90
37050;DHT22;22958;51.232;6.826;2022-07-29T07:50:00;17.90;99.90
37050;DHT22;22958;51.232;6.826;2022-07-29T07:52:25;17.80;99.90
37050;DHT22;22958;51.232;6.826;2022-07-29T07:54:51;17.70;99.90
37050;DHT22;22958;51.232;6.826;2022-07-29T07:57:16;17.70;99.90
37050;DHT22;22958;51.232;6.826;2022-07-29T07:59:42;17.70;99.90
37050;DHT22;22958;51.232;6.826;2022-07-29T08:02:08;17.70;99.90
37050;DHT22;22958;51.232;6.826;2022-07-29T08:04:34;17.60;99.90
37050;DHT22;22958;51.232;6.826;2022-07-29T08:07:00;17.50;99.90
37050;DHT22;22958;51.232;6.826;2022-07-29T08:09:26;17.50;99.90
37050;DHT22;22958;51.232;6.826;2022-07-29T08:11:52;17.60;99.90
37050;DHT22;22958;51.232;6.826;2022-07-29T08:14:18;17.70;99.90
37050;DHT22;22958;51.232;6.826;2022-07-29T08:16:43;17.70;99.90
37050;DHT22;22958;51.232;6.826;2022-07-29T08:19:09;17.70;99.90
37050;DHT22;22958;51.232;6.826;2022-07-29T08:21:34;17.70;99.90
37050;DHT22;22958;51.232;6.826;2022-07-29T08:24:00;17.70;99.90
37050;DHT22;22958;51.232;6.826;2022-07-29T08:26:44;17.60;99.90
37050;DHT22;22958;51.232;6.826;2022-07-29T08:29:10;17.50;99.90
37050;DHT22;22958;51.232;6.826;2022-07-29T08:31:36;17.60;99.90
37050;DHT22;22958;51.232;6.826;2022-07-29T08:34:02;17.60;99.90
37050;DHT22;22958;51.232;6.826;2022-07-29T08:36:28;17.60;99.90
37050;DHT22;22958;51.232;6.826;2022-07-29T08:38:54;17.60;99.90
37050;DHT22;22958;51.232;6.826;2022-07-29T08:41:19;17.70;99.90
37050;DHT22;22958;51.232;6.826;2022-07-29T08:43:45;17.80;99.90
37050;DHT22;22958;51.232;6.826;2022-07-29T08:46:11;17.90;99.90
37050;DHT22;22958;51.232;6.826;2022-07-29T08:48:37;17.90;99.90
37050;DHT22;22958;51.232;6.826;2022-07-29T08:51:03;17.80;99.90
37050;DHT22;22958;51.232;6.826;2022-07-29T08:53:30;17.50;99.90
37050;DHT22;22958;51.232;6.826;2022-07-29T08:55:55;17.50;99.90
37050;DHT22;22958;51.232;6.826;2022-07-29T08:58:22;17.50;99.90
37050;DHT22;22958;51.232;6.826;2022-07-29T09:00:52;17.60;99.90
37050;DHT22;22958;51.232;6.826;2022-07-29T09:03:18;17.60;99.90
37050;DHT22;22958;51.232;6.826;2022-07-29T09:05:44;17.80;99.90
37050;DHT22;22958;51.232;6.826;2022-07-29T09:08:10;17.90;99.90
37050;DHT22;22958;51.232;6.826;2022-07-29T09:10:36;18.00;99.90
37050;DHT22;22958;51.232;6.826;2022-07-29T09:13:01;18.10;99.90
37050;DHT22;22958;51.232;6.826;2022-07-29T09:15:27;18.40;99.90
37050;DHT22;22958;51.232;6.826;2022-07-29T09:17:52;18.70;99.90
37050;DHT22;22958;51.232;6.826;2022-07-29T09:20:19;18.90;99.90
37050;DHT22;22958;51.232;6.826;2022-07-29T09:22:45;18.80;99.90
37050;DHT22;22958;51.232;6.826;2022-07-29T09:25:37;19.20;99.90
37050;DHT22;22958;51.232;6.826;2022-07-29T09:30:34;19.40;99.90
37050;DHT22;22958;51.232;6.826;2022-07-29T09:33:00;19.60;99.90
37050;DHT22;22958;51.232;6.826;2022-07-29T09:35:27;19.30;99.90
37050;DHT22;22958;51.232;6.826;2022-07-29T09:37:53;19.60;99.90
37050;DHT22;22958;51.232;6.826;2022-07-29T09:40:22;19.70;99.90
37050;DHT22;22958;51.232;6.826;2022-07-29T09:42:48;19.80;99.90
37050;DHT22;22958;51.232;6.826;2022-07-29T09:45:47;19.70;99.90
37050;DHT22;22958;51.232;6.826;2022-07-29T09:48:16;19.40;99.90
37050;DHT22;22958;51.232;6.826;2022-07-29T09:50:43;19.10;99.90
37050;DHT22;22958;51.232;6.826;2022-07-29T09:53:09;19.20;99.90
37050;DHT22;22958;51.232;6.826;2022-07-29T09:55:50;19.10;99.90
37050;DHT22;22958;51.232;6.826;2022-07-29T09:58:17;19.10;99.90
37050;DHT22;22958;51.232;6.826;2022-07-29T10:00:43;19.20;99.90
37050;DHT22;22958;51.232;6.826;2022-07-29T10:03:08;19.30;99.90
37050;DHT22;22958;51.232;6.826;2022-07-29T10:05:34;19.60;99.90
37050;DHT22;22958;51.232;6.826;2022-07-29T10:07:59;19.60;99.90
37050;DHT22;22958;51.232;6.826;2022-07-29T10:15:16;19.40;99.90
37050;DHT22;22958;51.232;6.826;2022-07-29T10:17:41;19.70;99.90
37050;DHT22;22958;51.232;6.826;2022-07-29T10:20:08;19.60;99.90
37050;DHT22;22958;51.232;6.826;2022-07-29T10:22:33;19.80;99.90
37050;DHT22;22958;51.232;6.826;2022-07-29T10:24:59;19.80;99.90
37050;DHT22;22958;51.232;6.826;2022-07-29T10:27:24;19.80;99.90
37050;DHT22;22958;51.232;6.826;2022-07-29T10:29:50;19.90;99.90
37050;DHT22;22958;51.232;6.826;2022-07-29T10:32:34;20.20;99.90
37050;DHT22;22958;51.232;6.826;2022-07-29T10:43:18;20.00;99.90
37050;DHT22;22958;51.232;6.826;2022-07-29T10:45:45;20.20;99.90
37050;DHT22;22958;51.232;6.826;2022-07-29T10:48:12;20.50;99.90
37050;DHT22;22958;51.232;6.826;2022-07-29T10:53:21;20.30;99.90
37050;DHT22;22958;51.232;6.826;2022-07-29T10:55:47;20.10;99.90
37050;DHT22;22958;51.232;6.826;2022-07-29T10:58:16;20.00;99.90
37050;DHT22;22958;51.232;6.826;2022-07-29T11:00:42;20.10;99.90
37050;DHT22;22958;51.232;6.826;2022-07-29T11:03:08;20.50;99.90
37050;DHT22;22958;51.232;6.826;2022-07-29T11:05:50;20.90;99.90
37050;DHT22;22958;51.232;6.826;2022-07-29T11:08:17;20.80;99.90
37050;DHT22;22958;51.232;6.826;2022-07-29T11:10:44;20.70;99.90
37050;DHT22;22958;51.232;6.826;2022-07-29T11:13:09;21.10;99.90
37050;DHT22;22958;51.232;6.826;2022-07-29T11:18:19;22.40;99.90
37050;DHT22;22958;51.232;6.826;2022-07-29T11:20:47;22.10;99.90
37050;DHT22;22958;51.232;6.826;2022-07-29T11:23:30;22.40;99.90
37050;DHT22;22958;51.232;6.826;2022-07-29T11:28:54;23.10;99.90
37050;DHT22;22958;51.232;6.826;2022-07-29T11:31:31;23.00;99.90
37050;DHT22;22958;51.232;6.826;2022-07-29T11:37:13;23.00;99.90
37050;DHT22;22958;51.232;6.826;2022-07-29T11:47:33;25.10;99.10
37050;DHT22;22958;51.232;6.826;2022-07-29T11:49:59;26.90;91.80
37050;DHT22;22958;51.232;6.826;2022-07-29T11:52:32;26.60;89.80
37050;DHT22;22958;51.232;6.826;2022-07-29T11:54:59;27.10;86.30
37050;DHT22;22958;51.232;6.826;2022-07-29T11:57:26;29.10;78.30
37050;DHT22;22958;51.232;6.826;2022-07-29T11:59:53;28.00;73.00
37050;DHT22;22958;51.232;6.826;2022-07-29T12:02:18;28.20;73.20
37050;DHT22;22958;51.232;6.826;2022-07-29T12:04:56;28.50;72.90
37050;DHT22;22958;51.232;6.826;2022-07-29T12:07:32;28.20;71.80
37050;DHT22;22958;51.232;6.826;2022-07-29T12:09:57;29.10;70.30
37050;DHT22;22958;51.232;6.826;2022-07-29T12:12:23;30.10;69.50
37050;DHT22;22958;51.232;6.826;2022-07-29T12:14:49;30.10;69.00
37050;DHT22;22958;51.232;6.826;2022-07-29T12:17:28;30.80;64.30
37050;DHT22;22958;51.232;6.826;2022-07-29T12:19:53;28.90;67.20
37050;DHT22;22958;51.232;6.826;2022-07-29T12:24:51;29.10;66.50
37050;DHT22;22958;51.232;6.826;2022-07-29T12:27:17;28.00;67.60
37050;DHT22;22958;51.232;6.826;2022-07-29T12:29:42;25.70;75.20
37050;DHT22;22958;51.232;6.826;2022-07-29T12:32:08;25.10;80.00
37050;DHT22;22958;51.232;6.826;2022-07-29T12:34:34;25.20;83.10
37050;DHT22;22958;51.232;6.826;2022-07-29T12:37:00;25.10;83.80
37050;DHT22;22958;51.232;6.826;2022-07-29T12:39:26;25.60;85.70
37050;DHT22;22958;51.232;6.826;2022-07-29T12:41:53;26.70;80.60
37050;DHT22;22958;51.232;6.826;2022-07-29T12:44:18;27.00;80.20
37050;DHT22;22958;51.232;6.826;2022-07-29T12:46:44;27.40;78.00
37050;DHT22;22958;51.232;6.826;2022-07-29T12:49:20;28.20;76.80
37050;DHT22;22958;51.232;6.826;2022-07-29T12:51:46;26.40;78.40
37050;DHT22;22958;51.232;6.826;2022-07-29T12:54:14;25.80;84.70
37050;DHT22;22958;51.232;6.826;2022-07-29T12:56:42;26.30;84.00
37050;DHT22;22958;51.232;6.826;2022-07-29T12:59:26;26.10;83.50
37050;DHT22;22958;51.232;6.826;2022-07-29T13:01:51;27.10;81.60
37050;DHT22;22958;51.232;6.826;2022-07-29T13:04:26;26.80;80.20
37050;DHT22;22958;51.232;6.826;2022-07-29T13:06:59;25.90;82.60
37050;DHT22;22958;51.232;6.826;2022-07-29T13:09:36;26.40;82.60
37050;DHT22;22958;51.232;6.826;2022-07-29T13:12:01;26.00;81.70
37050;DHT22;22958;51.232;6.826;2022-07-29T13:14:31;27.30;78.80
37050;DHT22;22958;51.232;6.826;2022-07-29T13:17:07;28.10;76.80
37050;DHT22;22958;51.232;6.826;2022-07-29T13:19:34;27.00;74.50
37050;DHT22;22958;51.232;6.826;2022-07-29T13:22:00;28.20;74.30
37050;DHT22;22958;51.232;6.826;2022-07-29T13:24:26;30.20;69.50
37050;DHT22;22958;51.232;6.826;2022-07-29T13:26:51;31.10;61.70
37050;DHT22;22958;51.232;6.826;2022-07-29T13:29:17;32.10;59.20
37050;DHT22;22958;51.232;6.826;2022-07-29T13:31:42;30.80;59.80
37050;DHT22;22958;51.232;6.826;2022-07-29T13:34:08;29.70;60.30
37050;DHT22;22958;51.232;6.826;2022-07-29T13:36:33;30.60;61.10
37050;DHT22;22958;51.232;6.826;2022-07-29T13:38:59;31.40;60.10
37050;DHT22;22958;51.232;6.826;2022-07-29T13:41:26;31.30;56.00
37050;DHT22;22958;51.232;6.826;2022-07-29T13:43:51;30.10;59.20
37050;DHT22;22958;51.232;6.826;2022-07-29T13:46:17;31.80;59.00
37050;DHT22;22958;51.232;6.826;2022-07-29T13:48:43;33.10;55.90
37050;DHT22;22958;51.232;6.826;2022-07-29T13:51:08;33.40;53.70
37050;DHT22;22958;51.232;6.826;2022-07-29T13:53:34;32.90;54.40
37050;DHT22;22958;51.232;6.826;2022-07-29T13:55:59;33.10;53.40
37050;DHT22;22958;51.232;6.826;2022-07-29T13:58:25;32.80;54.30
37050;DHT22;22958;51.232;6.826;2022-07-29T14:00:50;31.30;55.70
37050;DHT22;22958;51.232;6.826;2022-07-29T14:03:16;31.90;55.40
37050;DHT22;22958;51.232;6.826;2022-07-29T14:05:42;33.60;54.00
37050;DHT22;22958;51.232;6.826;2022-07-29T14:08:07;33.20;53.70
37050;DHT22;22958;51.232;6.826;2022-07-29T14:10:32;33.50;54.00
37050;DHT22;22958;51.232;6.826;2022-07-29T14:12:58;33.00;53.30
37050;DHT22;22958;51.232;6.826;2022-07-29T14:15:24;32.60;51.80
37050;DHT22;22958;51.232;6.826;2022-07-29T14:17:50;32.80;52.60
37050;DHT22;22958;51.232;6.826;2022-07-29T14:20:15;33.20;51.30
37050;DHT22;22958;51.232;6.826;2022-07-29T14:22:41;30.90;52.40
37050;DHT22;22958;51.232;6.826;2022-07-29T14:25:07;31.00;54.00
37050;DHT22;22958;51.232;6.826;2022-07-29T14:27:33;30.00;54.30
37050;DHT22;22958;51.232;6.826;2022-07-29T14:29:58;28.60;56.30
37050;DHT22;22958;51.232;6.826;2022-07-29T14:32:24;27.90;59.20
37050;DHT22;22958;51.232;6.826;2022-07-29T14:34:49;29.70;58.70
37050;DHT22;22958;51.232;6.826;2022-07-29T14:37:14;29.10;57.40
37050;DHT22;22958;51.232;6.826;2022-07-29T14:39:40;29.70;57.60
37050;DHT22;22958;51.232;6.826;2022-07-29T14:42:06;29.20;56.60
37050;DHT22;22958;51.232;6.826;2022-07-29T14:44:31;28.90;57.20
37050;DHT22;22958;51.232;6.826;2022-07-29T14:46:57;29.70;56.70
37050;DHT22;22958;51.232;6.826;2022-07-29T14:49:24;29.70;58.30
37050;DHT22;22958;51.232;6.826;2022-07-29T14:51:50;30.10;57.10
37050;DHT22;22958;51.232;6.826;2022-07-29T14:54:16;31.00;55.40
37050;DHT22;22958;51.232;6.826;2022-07-29T14:56:42;31.50;53.30
37050;DHT22;22958;51.232;6.826;2022-07-29T14:59:07;31.20;54.20
37050;DHT22;22958;51.232;6.826;2022-07-29T15:01:32;31.70;53.40
37050;DHT22;22958;51.232;6.826;2022-07-29T15:03:58;30.80;54.30
37050;DHT22;22958;51.232;6.826;2022-07-29T15:06:23;30.70;55.60
37050;DHT22;22958;51.232;6.826;2022-07-29T15:08:49;29.40;54.60
37050;DHT22;22958;51.232;6.826;2022-07-29T15:11:14;28.60;56.80
37050;DHT22;22958;51.232;6.826;2022-07-29T15:13:40;29.10;56.50
37050;DHT22;22958;51.232;6.826;2022-07-29T15:16:05;28.80;55.70
37050;DHT22;22958;51.232;6.826;2022-07-29T15:18:31;27.00;58.30
37050;DHT22;22958;51.232;6.826;2022-07-29T15:20:56;27.30;59.80
37050;DHT22;22958;51.232;6.826;2022-07-29T15:23:22;27.10;58.70
37050;DHT22;22958;51.232;6.826;2022-07-29T15:25:47;27.70;59.30
37050;DHT22;22958;51.232;6.826;2022-07-29T15:28:12;27.30;59.20
37050;DHT22;22958;51.232;6.826;2022-07-29T15:30:38;26.80;58.80
37050;DHT22;22958;51.232;6.826;2022-07-29T15:33:07;26.40;60.90
37050;DHT22;22958;51.232;6.826;2022-07-29T15:35:34;26.60;62.50
37050;DHT22;22958;51.232;6.826;2022-07-29T15:37:59;27.10;60.80
37050;DHT22;22958;51.232;6.826;2022-07-29T15:40:25;26.60;60.50
37050;DHT22;22958;51.232;6.826;2022-07-29T15:42:50;26.90;59.50
37050;DHT22;22958;51.232;6.826;2022-07-29T15:45:15;26.70;57.70
37050;DHT22;22958;51.232;6.826;2022-07-29T15:47:41;26.20;60.80
37050;DHT22;22958;51.232;6.826;2022-07-29T15:50:06;27.00;59.70
37050;DHT22;22958;51.232;6.826;2022-07-29T15:52:37;26.70;59.30
37050;DHT22;22958;51.232;6.826;2022-07-29T15:55:02;27.10;59.70
37050;DHT22;22958;51.232;6.826;2022-07-29T15:57:28;27.30;58.40
37050;DHT22;22958;51.232;6.826;2022-07-29T15:59:53;26.80;59.20
37050;DHT22;22958;51.232;6.826;2022-07-29T16:02:19;25.90;59.60
37050;DHT22;22958;51.232;6.826;2022-07-29T16:04:44;26.00;60.70
37050;DHT22;22958;51.232;6.826;2022-07-29T16:07:10;25.90;60.80
37050;DHT22;22958;51.232;6.826;2022-07-29T16:09:35;25.40;59.40
37050;DHT22;22958;51.232;6.826;2022-07-29T16:12:01;25.40;60.80
37050;DHT22;22958;51.232;6.826;2022-07-29T16:14:26;25.30;60.70